createdAt,value
2022-09-04T00:01:20.265Z,16.50
2022-09-04T00:05:28.749Z,16.50
2022-09-04T00:09:43.310Z,16.40
2022-09-04T00:13:54.256Z,16.30
2022-09-04T00:18:03.690Z,16.20
2022-09-04T00:22:20.320Z,16.10
2022-09-04T00:26:42.081Z,16.00
2022-09-04T00:30:51.526Z,15.90
2022-09-04T00:35:07.102Z,15.90
2022-09-04T00:39:14.160Z,15.90
2022-09-04T00:44:02.417Z,15.80
2022-09-04T00:48:20.858Z,15.70
2022-09-04T00:52:45.188Z,15.60
2022-09-04T00:57:25.536Z,15.50
2022-09-04T01:01:30.529Z,15.20
2022-09-04T01:06:05.198Z,15.10
2022-09-04T01:10:22.770Z,15.00
2022-09-04T01:14:38.559Z,15.00
2022-09-04T01:18:50.531Z,14.90
2022-09-04T01:23:11.601Z,14.70
2022-09-04T01:27:23.830Z,14.70
2022-09-04T01:31:35.360Z,14.70
2022-09-04T01:35:49.472Z,14.70
2022-09-04T01:40:02.054Z,14.80
2022-09-04T01:44:09.018Z,14.80
2022-09-04T01:48:17.130Z,14.60
2022-09-04T01:52:36.806Z,14.60
2022-09-04T01:56:46.161Z,14.40
2022-09-04T02:01:00.475Z,14.30
2022-09-04T02:05:16.099Z,14.20
2022-09-04T02:09:30.995Z,14.20
2022-09-04T02:13:45.507Z,14.10
2022-09-04T02:17:58.984Z,14.00
2022-09-04T02:22:08.733Z,14.00
2022-09-04T02:26:18.295Z,13.90
2022-09-04T02:30:22.240Z,13.90
2022-09-04T02:34:34.099Z,13.80
2022-09-04T02:38:47.612Z,13.90
2022-09-04T02:43:07.780Z,13.90
2022-09-04T02:47:20.979Z,13.90
2022-09-04T02:51:41.519Z,13.90
2022-09-04T02:56:00.915Z,13.90
2022-09-04T03:00:13.718Z,13.80
2022-09-04T03:04:23.979Z,13.80
2022-09-04T03:08:36.338Z,13.70
2022-09-04T03:12:44.756Z,13.70
2022-09-04T03:16:53.938Z,13.70
2022-09-04T03:21:02.982Z,13.60
2022-09-04T03:25:29.630Z,13.60
2022-09-04T03:29:40.523Z,13.60
2022-09-04T03:33:52.476Z,13.60
2022-09-04T03:38:07.812Z,13.60
2022-09-04T03:42:21.357Z,13.60
2022-09-04T03:46:36.106Z,13.60
2022-09-04T03:50:49.035Z,13.60
2022-09-04T03:55:07.667Z,13.50
2022-09-04T03:59:19.491Z,13.50
2022-09-04T04:03:49.159Z,13.40
2022-09-04T04:08:05.284Z,13.30
2022-09-04T04:12:34.371Z,13.30
2022-09-04T04:16:55.822Z,13.20
2022-09-04T04:21:08.933Z,13.10
2022-09-04T04:25:41.397Z,13.00
2022-09-04T04:29:56.387Z,13.00
2022-09-04T04:34:09.206Z,13.00
2022-09-04T04:38:48.149Z,12.90
2022-09-04T04:42:57.570Z,12.90
2022-09-04T04:47:11.688Z,12.80
2022-09-04T04:51:26.571Z,12.80
2022-09-04T04:55:49.611Z,12.80
2022-09-04T05:00:06.561Z,12.80
2022-09-04T05:04:18.809Z,12.70
2022-09-04T05:08:33.369Z,12.70
2022-09-04T05:12:49.643Z,12.80
2022-09-04T05:16:58.375Z,12.80
2022-09-04T05:21:10.228Z,12.80
2022-09-04T05:25:25.442Z,12.80
2022-09-04T05:29:39.587Z,12.80
2022-09-04T05:33:50.731Z,13.00
2022-09-04T05:38:00.475Z,13.10
2022-09-04T05:42:39.424Z,13.20
2022-09-04T05:46:55.283Z,13.20
2022-09-04T05:51:10.768Z,13.30
2022-09-04T05:55:38.506Z,13.40
2022-09-04T06:00:04.431Z,13.50
2022-09-04T06:04:38.418Z,13.60
2022-09-04T06:09:27.040Z,13.80
2022-09-04T06:13:58.514Z,13.90
2022-09-04T06:18:19.713Z,14.10
2022-09-04T06:22:40.799Z,14.30
2022-09-04T06:27:12.615Z,14.50
2022-09-04T06:31:52.135Z,14.80
2022-09-04T06:36:40.201Z,15.10
2022-09-04T06:40:59.308Z,15.40
2022-09-04T06:45:31.120Z,15.80
2022-09-04T06:49:42.528Z,16.10
2022-09-04T06:53:57.929Z,16.30
2022-09-04T06:58:25.064Z,16.50
2022-09-04T07:02:48.401Z,16.70
2022-09-04T07:07:03.398Z,16.90
2022-09-04T07:11:18.542Z,17.10
2022-09-04T07:15:59.335Z,17.40
2022-09-04T07:20:16.055Z,17.70
2022-09-04T07:24:43.886Z,18.00
2022-09-04T07:29:00.925Z,18.40
2022-09-04T07:33:11.866Z,18.80
2022-09-04T07:37:28.037Z,19.20
2022-09-04T07:41:39.103Z,19.70
2022-09-04T07:45:51.547Z,19.60
2022-09-04T07:50:04.239Z,19.60
2022-09-04T07:54:36.332Z,19.70
2022-09-04T07:59:13.530Z,19.70
2022-09-04T08:03:53.919Z,19.80
2022-09-04T08:08:32.278Z,20.00
2022-09-04T08:12:58.068Z,20.30
2022-09-04T08:17:37.262Z,20.50
2022-09-04T08:21:43.583Z,21.20
2022-09-04T08:25:56.659Z,21.40
2022-09-04T08:30:05.563Z,21.50
2022-09-04T08:34:33.080Z,21.40
2022-09-04T08:39:00.514Z,21.80
2022-09-04T08:43:35.349Z,23.20
2022-09-04T08:48:12.136Z,25.20
2022-09-04T08:52:41.677Z,25.90
2022-09-04T08:56:53.838Z,27.20
2022-09-04T09:01:53.861Z,29.20
2022-09-04T09:06:31.463Z,30.80
2022-09-04T09:11:00.422Z,31.40
2022-09-04T09:15:35.426Z,31.20
2022-09-04T09:19:46.131Z,30.60
2022-09-04T09:24:14.586Z,29.70
2022-09-04T09:28:57.164Z,31.40
2022-09-04T09:33:35.448Z,30.00
2022-09-04T09:38:06.662Z,32.10
2022-09-04T09:42:48.547Z,31.90
2022-09-04T09:47:30.448Z,32.90
2022-09-04T09:52:10.041Z,33.00
2022-09-04T09:56:54.080Z,33.50
2022-09-04T10:01:10.310Z,32.10
2022-09-04T10:05:52.979Z,32.30
2022-09-04T10:10:24.943Z,32.40
2022-09-04T10:15:14.146Z,33.00
2022-09-04T10:19:48.021Z,33.10
2022-09-04T10:24:31.929Z,32.60
2022-09-04T10:29:11.092Z,31.50
2022-09-04T10:33:32.214Z,33.00
2022-09-04T10:38:17.983Z,34.10
2022-09-04T10:42:34.128Z,34.80
2022-09-04T10:46:46.726Z,34.70
2022-09-04T10:51:37.309Z,33.90
2022-09-04T10:56:01.447Z,32.00
2022-09-04T11:00:09.119Z,30.50
2022-09-04T11:04:45.898Z,30.00
2022-09-04T11:09:12.065Z,31.10
2022-09-04T11:13:56.517Z,30.10
2022-09-04T11:18:36.526Z,32.40
2022-09-04T11:23:09.996Z,32.80
2022-09-04T11:27:59.075Z,30.70
2022-09-04T11:32:36.499Z,32.40
2022-09-04T11:37:10.218Z,34.60
2022-09-04T11:41:51.945Z,35.40
2022-09-04T11:46:22.451Z,34.70
2022-09-04T11:50:40.592Z,36.40
2022-09-04T11:55:08.940Z,37.30
2022-09-04T11:59:24.767Z,34.70
2022-09-04T12:04:03.796Z,33.00
2022-09-04T12:08:30.567Z,33.30
2022-09-04T12:13:14.718Z,33.10
2022-09-04T12:17:37.829Z,31.20
2022-09-04T12:22:14.634Z,30.00
2022-09-04T12:26:59.738Z,28.60
2022-09-04T12:31:20.583Z,27.40
2022-09-04T12:35:50.620Z,26.70
2022-09-04T12:40:36.764Z,26.20
2022-09-04T12:44:54.622Z,25.30
2022-09-04T12:49:10.405Z,25.40
2022-09-04T12:53:26.544Z,25.50
2022-09-04T12:57:39.354Z,25.00
2022-09-04T13:01:55.066Z,25.00
2022-09-04T13:06:12.809Z,25.00
2022-09-04T13:10:27.014Z,25.40
2022-09-04T13:14:59.984Z,25.50
2022-09-04T13:19:12.780Z,25.10
2022-09-04T13:23:27.106Z,24.50
2022-09-04T13:27:41.046Z,24.60
2022-09-04T13:32:15.945Z,24.60
2022-09-04T13:36:35.296Z,25.40
2022-09-04T13:40:55.017Z,26.50
2022-09-04T13:45:10.636Z,27.00
2022-09-04T13:49:17.010Z,30.70
2022-09-04T13:53:26.013Z,32.80
2022-09-04T13:57:33.304Z,35.00
2022-09-04T14:01:46.148Z,36.20
2022-09-04T14:05:50.061Z,34.90
2022-09-04T14:09:59.390Z,35.80
2022-09-04T14:14:29.608Z,36.60
2022-09-04T14:19:12.250Z,35.70
2022-09-04T14:23:25.004Z,34.60
2022-09-04T14:27:40.138Z,35.90
2022-09-04T14:31:54.357Z,35.50
2022-09-04T14:36:10.249Z,31.10
2022-09-04T14:40:18.219Z,29.40
2022-09-04T14:44:35.913Z,29.40
2022-09-04T14:48:44.682Z,28.70
2022-09-04T14:52:51.822Z,29.90
2022-09-04T14:57:01.580Z,30.60
2022-09-04T15:01:11.352Z,28.30
2022-09-04T15:05:21.823Z,25.50
2022-09-04T15:09:28.499Z,23.90
2022-09-04T15:13:46.583Z,23.20
2022-09-04T15:18:01.937Z,22.80
2022-09-04T15:22:10.053Z,22.30
2022-09-04T15:26:21.657Z,23.30
2022-09-04T15:30:29.491Z,24.80
2022-09-04T15:34:34.840Z,25.00
2022-09-04T15:38:38.949Z,24.90
2022-09-04T15:42:46.591Z,23.60
2022-09-04T15:47:00.446Z,22.30
2022-09-04T15:51:20.763Z,21.00
2022-09-04T15:55:27.222Z,21.00
2022-09-04T15:59:45.803Z,20.60
2022-09-04T16:04:02.437Z,20.80
2022-09-04T16:08:21.130Z,20.70
2022-09-04T16:12:28.876Z,20.40
2022-09-04T16:16:40.101Z,20.30
2022-09-04T16:20:51.387Z,20.00
2022-09-04T16:25:07.349Z,19.90
2022-09-04T16:29:27.317Z,19.60
2022-09-04T16:33:34.830Z,19.30
2022-09-04T16:37:43.405Z,19.00
2022-09-04T16:41:53.487Z,18.70
2022-09-04T16:46:09.062Z,18.60
2022-09-04T16:50:25.074Z,18.40
2022-09-04T16:54:33.344Z,18.20
2022-09-04T16:58:46.217Z,18.10
2022-09-04T17:02:56.608Z,18.00
2022-09-04T17:07:11.176Z,17.80
2022-09-04T17:11:22.469Z,17.70
2022-09-04T17:15:33.275Z,17.50
2022-09-04T17:19:36.694Z,17.40
2022-09-04T17:28:59.006Z,17.20
2022-09-04T17:29:12.278Z,17.20
2022-09-04T17:35:40.264Z,17.10
2022-09-04T17:40:53.759Z,17.00
2022-09-04T17:42:08.208Z,16.90
2022-09-04T17:46:27.715Z,16.80
2022-09-04T17:50:32.450Z,16.60
2022-09-04T17:54:42.431Z,16.50
2022-09-04T17:58:59.797Z,16.40
2022-09-04T18:03:12.662Z,16.30
2022-09-04T18:08:06.533Z,16.30
2022-09-04T18:12:03.543Z,16.30
2022-09-04T18:16:27.141Z,16.20
2022-09-04T18:20:37.928Z,16.20
2022-09-04T18:24:48.965Z,16.10
2022-09-04T18:31:11.261Z,16.00
2022-09-04T18:37:26.210Z,15.90
2022-09-04T18:38:17.282Z,15.80
2022-09-04T18:50:21.589Z,15.80
2022-09-04T18:50:35.749Z,15.70
2022-09-04T18:51:51.387Z,15.70
2022-09-04T18:56:00.309Z,15.70
2022-09-04T19:00:10.159Z,15.60
2022-09-04T19:04:38.812Z,15.50
2022-09-04T19:08:48.454Z,15.40
2022-09-04T19:13:08.377Z,15.30
2022-09-04T19:17:17.297Z,15.30
2022-09-04T19:21:31.193Z,15.30
2022-09-04T19:25:37.810Z,15.20
2022-09-04T19:29:47.662Z,15.10
2022-09-04T19:33:58.144Z,15.20
2022-09-04T19:40:34.602Z,15.10
2022-09-04T19:46:07.373Z,15.10
2022-09-04T19:47:28.768Z,15.00
2022-09-04T19:53:31.103Z,14.90
2022-09-04T19:56:09.303Z,14.80
2022-09-04T20:00:31.282Z,14.80
2022-09-04T20:04:48.993Z,14.70
2022-09-04T20:09:00.696Z,14.70
2022-09-04T20:13:17.260Z,14.60
2022-09-04T20:17:44.324Z,14.60
2022-09-04T20:21:51.971Z,14.60
2022-09-04T20:26:04.587Z,14.50
2022-09-04T20:30:13.009Z,14.50
2022-09-04T20:34:36.021Z,14.40
2022-09-04T20:38:46.494Z,14.30
2022-09-04T20:43:06.468Z,14.40
2022-09-04T20:52:49.921Z,14.40
2022-09-04T20:52:57.196Z,14.30
2022-09-04T20:57:36.016Z,14.20
2022-09-04T21:03:22.694Z,14.20
2022-09-04T21:05:49.886Z,14.10
2022-09-04T21:10:10.536Z,14.10
2022-09-04T21:14:18.484Z,14.00
2022-09-04T21:18:41.132Z,14.00
2022-09-04T21:23:20.706Z,14.00
2022-09-04T21:27:54.492Z,13.90
2022-09-04T21:32:24.304Z,13.80
2022-09-04T21:36:34.805Z,13.80
2022-09-04T21:41:20.070Z,13.80
2022-09-04T21:45:55.405Z,13.80
2022-09-04T21:50:35.413Z,13.80
2022-09-04T22:00:11.118Z,13.70
2022-09-04T22:02:41.882Z,13.70
2022-09-04T22:04:06.740Z,13.70
2022-09-04T22:13:34.940Z,13.70
2022-09-04T22:13:38.284Z,13.60
2022-09-04T22:17:42.000Z,13.60
2022-09-04T22:22:06.162Z,13.60
2022-09-04T22:26:34.006Z,13.50
2022-09-04T22:30:52.822Z,13.50
2022-09-04T22:35:22.430Z,13.40
2022-09-04T22:39:57.800Z,13.40
2022-09-04T22:44:13.398Z,13.40
2022-09-04T22:49:12.771Z,13.40
2022-09-04T22:53:46.597Z,13.40
2022-09-04T22:58:05.401Z,13.30
2022-09-04T23:02:35.422Z,13.30
2022-09-04T23:12:23.394Z,13.20
2022-09-04T23:14:02.221Z,13.20
2022-09-04T23:16:22.748Z,13.10
2022-09-04T23:26:34.533Z,13.10
2022-09-04T23:26:45.336Z,13.10
2022-09-04T23:30:13.600Z,13.00
2022-09-04T23:34:42.623Z,13.00
2022-09-04T23:39:28.339Z,13.00
2022-09-04T23:44:26.873Z,12.90
2022-09-04T23:49:06.989Z,12.90
2022-09-04T23:53:21.546Z,12.80
2022-09-04T23:57:30.252Z,12.80
